EKSB/SGD METAR and TAF weather

Enter ICAO airport designator
Station Type Date Time Source
EKSB METAR 2019/10/21 23:20 UTC NOAA

EKSB 212320Z AUTO 17004KT 120V210 4200NDV BR BKN022/// 12/11 Q1018


Station Type Date Time Source
EKSB Decoded METAR 2019/10/21 23:20 UTC NOAA

Soenderborg Lufthavn, Denmark (EKSB) 54-58N 009-47E 14M
Oct 21, 2019 - 07:20 PM EDT / 2019.10.21 2320 UTC
Wind: from the S (170 degrees) at 5 MPH (4 KT) (direction variable):0
Sky conditions: mostly cloudy
Weather: mist
Temperature: 53 F (12 C)
Dew Point: 51 F (11 C)
Relative Humidity: 93%
Pressure (altimeter): 30.06 in. Hg (1018 hPa)
ob: EKSB 212320Z AUTO 17004KT 120V210 4200NDV BR BKN022/// 12/11 Q1018
cycle: 23

Station Type Date Time Source
EKSB TAF 2016/01/27 09:03 UTC NOAA

TAF TAF EKSB 270856Z 2709/2721 23022KT 5000 -RA BR BKN008
TEMPO 2709/2721 24025G40KT 2000 RADZ BKN004

Example: see airport list